NORTHEAST SUFFOLK  -  Frost Advisory Frost Advisory        NORTHWEST SUFFOLK  -  Frost Advisory Frost Advisory        SOUTHEAST SUFFOLK  -  Frost Advisory Frost Advisory        SOUTHWEST SUFFOLK  -  Frost Advisory Frost Advisory      

Active alerts

Northwest Suffolk
  Details for Northwest Suffolk Frost Advisory
Southwest Suffolk
  Details for Southwest Suffolk Frost Advisory
Northeast Suffolk
  Details for Northeast Suffolk Frost Advisory
Southeast Suffolk
  Details for Southeast Suffolk Frost Advisory


WXM80 ListenWXM80 Stop

You find our weather info also at:

UK Metoffice

WeatherCloud

Weather Underground

Northeastern Weather Network

AWEKAS

Citizen Weather Observer Program (CWOP)

HAMweather, WeatherForYou, PWS Weather


Weather Underground History page Text

Daily Summary for September 25, 2017 Units:  Both    English   Metric
« Previous Day
Next Day »
Daily Weekly Monthly Yearly Custom
  High: Low: Average:
Temperature: 85.6 °F /  29.8 °C 64.4 °F /  18 °C 72.6 °F /  22.6 °C
Dew Point: 73.1 °F /  22.8 °C 61.3 °F /  16.3 °C 66.5 °F /  19.2 °C
Humidity: 97 % 62 % 82 %
Wind Speed: 4.7 mph /  7.6 km/h - 0.6 mph /  1 km/h
Wind Gust: 9.2 mph /  14.8 km/h - -
Wind:- - ESE
Pressure: 29.99 in /  1015.5 hPa 29.91 in /  1012.8 hPa -
Precipitation: 0.00 in /  0 mm    
Historical Graphs
 
 
Tabular Data for September 25, 2017
Time Temperature Dew Point Pressure Wind Wind Speed Wind Gust Humidity Rainfall Rate (Hourly)
00:00 68.8 °F /  20.4 °C 62.4 °F /  16.9 °C 29.96 in /  1014.4 hPa Calm     80 % 0.00 in /  0 mm
00:05 68.6 °F /  20.3 °C 62.2 °F /  16.8 °C 29.96 in /  1014.4 hPa Calm     80 % 0.00 in /  0 mm
00:10 68.5 °F /  20.3 °C 62.1 °F /  16.7 °C 29.96 in /  1014.4 hPa Calm     80 % 0.00 in /  0 mm
00:15 68.3 °F /  20.2 °C 61.9 °F /  16.6 °C 29.96 in /  1014.4 hPa Calm     80 % 0.00 in /  0 mm
00:20 68.2 °F /  20.1 °C 62.1 °F /  16.7 °C 29.96 in /  1014.4 hPa Calm     81 % 0.00 in /  0 mm
00:25 68.1 °F /  20.1 °C 62.0 °F /  16.7 °C 29.96 in /  1014.4 hPa Calm     81 % 0.00 in /  0 mm
00:30 67.9 °F /  19.9 °C 61.9 °F /  16.6 °C 29.95 in /  1014.1 hPa Calm     81 % 0.00 in /  0 mm
00:35 67.8 °F /  19.9 °C 61.8 °F /  16.6 °C 29.95 in /  1014.1 hPa Calm     81 % 0.00 in /  0 mm
00:40 67.7 °F /  19.8 °C 61.7 °F /  16.5 °C 29.94 in /  1013.8 hPa Calm     81 % 0.00 in /  0 mm
00:45 67.6 °F /  19.8 °C 61.6 °F /  16.4 °C 29.94 in /  1013.8 hPa Calm     81 % 0.00 in /  0 mm
00:50 67.5 °F /  19.7 °C 61.5 °F /  16.4 °C 29.94 in /  1013.8 hPa Calm     81 % 0.00 in /  0 mm
00:55 67.4 °F /  19.7 °C 61.7 °F /  16.5 °C 29.94 in /  1013.8 hPa Calm     82 % 0.00 in /  0 mm
01:00 67.3 °F /  19.6 °C 61.6 °F /  16.4 °C 29.94 in /  1013.8 hPa Calm     82 % 0.00 in /  0 mm
01:06 67.2 °F /  19.6 °C 61.9 °F /  16.6 °C 29.94 in /  1013.8 hPa Calm     83 % 0.00 in /  0 mm
01:10 67.1 °F /  19.5 °C 61.8 °F /  16.6 °C 29.94 in /  1013.8 hPa Calm     83 % 0.00 in /  0 mm
01:16 67.0 °F /  19.4 °C 61.3 °F /  16.3 °C 29.94 in /  1013.8 hPa Calm     82 % 0.00 in /  0 mm
01:21 66.9 °F /  19.4 °C 61.6 °F /  16.4 °C 29.94 in /  1013.8 hPa Calm     83 % 0.00 in /  0 mm
01:26 66.8 °F /  19.3 °C 61.5 °F /  16.4 °C 29.94 in /  1013.8 hPa Calm     83 % 0.00 in /  0 mm
01:31 66.8 °F /  19.3 °C 61.4 °F /  16.3 °C 29.94 in /  1013.8 hPa Calm     83 % 0.00 in /  0 mm
01:36 66.7 °F /  19.3 °C 61.7 °F /  16.5 °C 29.94 in /  1013.8 hPa Calm     84 % 0.00 in /  0 mm
01:41 66.6 °F /  19.2 °C 61.6 °F /  16.4 °C 29.94 in /  1013.8 hPa Calm     84 % 0.00 in /  0 mm
01:46 66.5 °F /  19.2 °C 61.5 °F /  16.4 °C 29.94 in /  1013.8 hPa Calm     84 % 0.00 in /  0 mm
01:51 66.5 °F /  19.2 °C 61.5 °F /  16.4 °C 29.94 in /  1013.8 hPa Calm     84 % 0.00 in /  0 mm
01:56 66.4 °F /  19.1 °C 61.4 °F /  16.3 °C 29.93 in /  1013.4 hPa Calm     84 % 0.00 in /  0 mm
02:01 66.4 °F /  19.1 °C 61.8 °F /  16.6 °C 29.93 in /  1013.4 hPa Calm     85 % 0.00 in /  0 mm
02:06 66.3 °F /  19.1 °C 61.7 °F /  16.5 °C 29.93 in /  1013.4 hPa Calm     85 % 0.00 in /  0 mm
02:11 66.2 °F /  19 °C 61.6 °F /  16.4 °C 29.93 in /  1013.4 hPa Calm     85 % 0.00 in /  0 mm
02:16 66.1 °F /  18.9 °C 61.5 °F /  16.4 °C 29.93 in /  1013.4 hPa Calm     85 % 0.00 in /  0 mm
02:21 66.1 °F /  18.9 °C 61.5 °F /  16.4 °C 29.93 in /  1013.4 hPa Calm     85 % 0.00 in /  0 mm
02:26 66.1 °F /  18.9 °C 61.8 °F /  16.6 °C 29.93 in /  1013.4 hPa Calm     86 % 0.00 in /  0 mm
02:31 66.0 °F /  18.9 °C 61.7 °F /  16.5 °C 29.93 in /  1013.4 hPa Calm     86 % 0.00 in /  0 mm
02:36 65.9 °F /  18.8 °C 61.6 °F /  16.4 °C 29.93 in /  1013.4 hPa Calm     86 % 0.00 in /  0 mm
02:41 65.9 °F /  18.8 °C 61.9 °F /  16.6 °C 29.93 in /  1013.4 hPa Calm     87 % 0.00 in /  0 mm
02:46 65.9 °F /  18.8 °C 61.9 °F /  16.6 °C 29.93 in /  1013.4 hPa Calm     87 % 0.00 in /  0 mm
02:51 65.8 °F /  18.8 °C 61.8 °F /  16.6 °C 29.93 in /  1013.4 hPa Calm     87 % 0.00 in /  0 mm
02:56 65.8 °F /  18.8 °C 61.8 °F /  16.6 °C 29.92 in /  1013.1 hPa Calm     87 % 0.00 in /  0 mm
03:01 65.7 °F /  18.7 °C 62.0 °F /  16.7 °C 29.92 in /  1013.1 hPa Calm     88 % 0.00 in /  0 mm
03:06 65.7 °F /  18.7 °C 62.0 °F /  16.7 °C 29.92 in /  1013.1 hPa Calm     88 % 0.00 in /  0 mm
03:11 65.7 °F /  18.7 °C 62.0 °F /  16.7 °C 29.92 in /  1013.1 hPa Calm     88 % 0.00 in /  0 mm
03:16 65.6 °F /  18.7 °C 62.3 °F /  16.8 °C 29.92 in /  1013.1 hPa Calm     89 % 0.00 in /  0 mm
03:21 65.6 °F /  18.7 °C 62.3 °F /  16.8 °C 29.92 in /  1013.1 hPa Calm     89 % 0.00 in /  0 mm
03:26 65.5 °F /  18.6 °C 61.9 °F /  16.6 °C 29.92 in /  1013.1 hPa Calm     88 % 0.00 in /  0 mm
03:31 65.5 °F /  18.6 °C 62.2 °F /  16.8 °C 29.92 in /  1013.1 hPa Calm     89 % 0.00 in /  0 mm
03:36 65.4 °F /  18.6 °C 62.1 °F /  16.7 °C 29.93 in /  1013.4 hPa Calm     89 % 0.00 in /  0 mm
03:41 65.4 °F /  18.6 °C 62.1 °F /  16.7 °C 29.93 in /  1013.4 hPa Calm     89 % 0.00 in /  0 mm
03:46 65.4 °F /  18.6 °C 62.1 °F /  16.7 °C 29.93 in /  1013.4 hPa Calm     89 % 0.00 in /  0 mm
03:51 65.3 °F /  18.5 °C 62.0 °F /  16.7 °C 29.93 in /  1013.4 hPa Calm     89 % 0.00 in /  0 mm
03:56 65.3 °F /  18.5 °C 62.3 °F /  16.8 °C 29.93 in /  1013.4 hPa Calm     90 % 0.00 in /  0 mm
04:01 65.3 °F /  18.5 °C 62.0 °F /  16.7 °C 29.93 in /  1013.4 hPa Calm     89 % 0.00 in /  0 mm
04:06 65.2 °F /  18.4 °C 61.9 °F /  16.6 °C 29.92 in /  1013.1 hPa Calm     89 % 0.00 in /  0 mm
04:11 65.2 °F /  18.4 °C 61.9 °F /  16.6 °C 29.93 in /  1013.4 hPa Calm     89 % 0.00 in /  0 mm
04:16 65.2 °F /  18.4 °C 61.9 °F /  16.6 °C 29.92 in /  1013.1 hPa Calm     89 % 0.00 in /  0 mm
04:21 65.1 °F /  18.4 °C 61.8 °F /  16.6 °C 29.92 in /  1013.1 hPa Calm     89 % 0.00 in /  0 mm
04:27 65.1 °F /  18.4 °C 62.1 °F /  16.7 °C 29.92 in /  1013.1 hPa Calm     90 % 0.00 in /  0 mm
04:32 65.0 °F /  18.3 °C 62.0 °F /  16.7 °C 29.93 in /  1013.4 hPa Calm     90 % 0.00 in /  0 mm
04:37 65.0 °F /  18.3 °C 62.0 °F /  16.7 °C 29.93 in /  1013.4 hPa Calm     90 % 0.00 in /  0 mm
04:42 65.0 °F /  18.3 °C 62.0 °F /  16.7 °C 29.93 in /  1013.4 hPa Calm     90 % 0.00 in /  0 mm
04:47 65.0 °F /  18.3 °C 62.3 °F /  16.8 °C 29.92 in /  1013.1 hPa Calm     91 % 0.00 in /  0 mm
04:52 64.9 °F /  18.3 °C 62.2 °F /  16.8 °C 29.92 in /  1013.1 hPa Calm     91 % 0.00 in /  0 mm
04:57 64.9 °F /  18.3 °C 62.2 °F /  16.8 °C 29.92 in /  1013.1 hPa Calm     91 % 0.00 in /  0 mm
05:02 64.9 °F /  18.3 °C 62.2 °F /  16.8 °C 29.92 in /  1013.1 hPa Calm     91 % 0.00 in /  0 mm
05:07 64.8 °F /  18.2 °C 62.1 °F /  16.7 °C 29.92 in /  1013.1 hPa Calm     91 % 0.00 in /  0 mm
05:12 64.8 °F /  18.2 °C 62.1 °F /  16.7 °C 29.92 in /  1013.1 hPa Calm     91 % 0.00 in /  0 mm
05:17 64.8 °F /  18.2 °C 62.1 °F /  16.7 °C 29.92 in /  1013.1 hPa Calm     91 % 0.00 in /  0 mm
05:18 64.8 °F /  18.2 °C 62.1 °F /  16.7 °C 29.92 in /  1013.1 hPa Calm     91 % 0.00 in /  0 mm
05:23 64.7 °F /  18.2 °C 62.0 °F /  16.7 °C 29.92 in /  1013.1 hPa Calm     91 % 0.00 in /  0 mm
05:28 64.7 °F /  18.2 °C 62.0 °F /  16.7 °C 29.92 in /  1013.1 hPa Calm     91 % 0.00 in /  0 mm
05:33 64.7 °F /  18.2 °C 62.0 °F /  16.7 °C 29.92 in /  1013.1 hPa Calm     91 % 0.00 in /  0 mm
05:38 64.6 °F /  18.1 °C 61.9 °F /  16.6 °C 29.92 in /  1013.1 hPa Calm     91 % 0.00 in /  0 mm
05:43 64.6 °F /  18.1 °C 61.9 °F /  16.6 °C 29.93 in /  1013.4 hPa Calm     91 % 0.00 in /  0 mm
05:48 64.5 °F /  18.1 °C 61.8 °F /  16.6 °C 29.93 in /  1013.4 hPa Calm     91 % 0.00 in /  0 mm
05:53 64.5 °F /  18.1 °C 61.8 °F /  16.6 °C 29.93 in /  1013.4 hPa Calm     91 % 0.00 in /  0 mm
05:58 64.5 °F /  18.1 °C 62.1 °F /  16.7 °C 29.93 in /  1013.4 hPa Calm     92 % 0.00 in /  0 mm
06:03 64.5 °F /  18.1 °C 62.1 °F /  16.7 °C 29.94 in /  1013.8 hPa Calm     92 % 0.00 in /  0 mm
06:08 64.5 °F /  18.1 °C 62.4 °F /  16.9 °C 29.94 in /  1013.8 hPa Calm     93 % 0.00 in /  0 mm
06:18 64.5 °F /  18.1 °C 62.4 °F /  16.9 °C 29.94 in /  1013.8 hPa Calm     93 % 0.00 in /  0 mm
06:23 64.5 °F /  18.1 °C 62.4 °F /  16.9 °C 29.94 in /  1013.8 hPa Calm     93 % 0.00 in /  0 mm
06:28 64.5 °F /  18.1 °C 62.4 °F /  16.9 °C 29.94 in /  1013.8 hPa Calm     93 % 0.00 in /  0 mm
06:33 64.4 °F /  18 °C 62.3 °F /  16.8 °C 29.95 in /  1014.1 hPa Calm     93 % 0.00 in /  0 mm
06:39 64.5 °F /  18.1 °C 62.4 °F /  16.9 °C 29.95 in /  1014.1 hPa Calm     93 % 0.00 in /  0 mm
06:44 64.4 °F /  18 °C 62.3 °F /  16.8 °C 29.95 in /  1014.1 hPa Calm     93 % 0.00 in /  0 mm
06:49 64.5 °F /  18.1 °C 62.4 °F /  16.9 °C 29.95 in /  1014.1 hPa Calm     93 % 0.00 in /  0 mm
06:54 64.5 °F /  18.1 °C 62.4 °F /  16.9 °C 29.95 in /  1014.1 hPa Calm     93 % 0.00 in /  0 mm
06:59 64.4 °F /  18 °C 62.3 °F /  16.8 °C 29.95 in /  1014.1 hPa Calm     93 % 0.00 in /  0 mm
07:04 64.4 °F /  18 °C 62.3 °F /  16.8 °C 29.95 in /  1014.1 hPa Calm     93 % 0.00 in /  0 mm
07:09 64.4 °F /  18 °C 62.6 °F /  17 °C 29.95 in /  1014.1 hPa Calm     94 % 0.00 in /  0 mm
07:14 64.5 °F /  18.1 °C 62.7 °F /  17.1 °C 29.95 in /  1014.1 hPa Calm     94 % 0.00 in /  0 mm
07:19 64.6 °F /  18.1 °C 62.8 °F /  17.1 °C 29.95 in /  1014.1 hPa Calm     94 % 0.00 in /  0 mm
07:24 64.7 °F /  18.2 °C 62.9 °F /  17.2 °C 29.96 in /  1014.4 hPa Calm     94 % 0.00 in /  0 mm
07:29 64.8 °F /  18.2 °C 63.3 °F /  17.4 °C 29.97 in /  1014.8 hPa Calm     95 % 0.00 in /  0 mm
07:34 64.9 °F /  18.3 °C 63.4 °F /  17.4 °C 29.97 in /  1014.8 hPa West 0.1 mph /  0.2 km/h 1.0 mph /  1.6 km/h 95 % 0.00 in /  0 mm
07:39 65.1 °F /  18.4 °C 63.6 °F /  17.6 °C 29.97 in /  1014.8 hPa Calm     95 % 0.00 in /  0 mm
07:44 65.3 °F /  18.5 °C 63.8 °F /  17.7 °C 29.97 in /  1014.8 hPa Calm     95 % 0.00 in /  0 mm
07:49 65.6 °F /  18.7 °C 64.4 °F /  18 °C 29.97 in /  1014.8 hPa Calm     96 % 0.00 in /  0 mm
07:54 66.0 °F /  18.9 °C 64.8 °F /  18.2 °C 29.97 in /  1014.8 hPa Calm     96 % 0.00 in /  0 mm
07:59 66.3 °F /  19.1 °C 65.1 °F /  18.4 °C 29.97 in /  1014.8 hPa Calm     96 % 0.00 in /  0 mm
08:04 66.7 °F /  19.3 °C 65.8 °F /  18.8 °C 29.97 in /  1014.8 hPa Calm     97 % 0.00 in /  0 mm
08:09 67.0 °F /  19.4 °C 66.1 °F /  18.9 °C 29.97 in /  1014.8 hPa NE 0.1 mph /  0.2 km/h 1.2 mph /  1.9 km/h 97 % 0.00 in /  0 mm
08:14 67.2 °F /  19.6 °C 66.3 °F /  19.1 °C 29.97 in /  1014.8 hPa Calm     97 % 0.00 in /  0 mm
08:19 67.4 °F /  19.7 °C 66.5 °F /  19.2 °C 29.97 in /  1014.8 hPa Calm   1.2 mph /  1.9 km/h 97 % 0.00 in /  0 mm
08:24 67.4 °F /  19.7 °C 66.2 °F /  19 °C 29.97 in /  1014.8 hPa Calm     96 % 0.00 in /  0 mm
08:29 67.6 °F /  19.8 °C 66.4 °F /  19.1 °C 29.97 in /  1014.8 hPa Calm     96 % 0.00 in /  0 mm
08:34 67.8 °F /  19.9 °C 66.6 °F /  19.2 °C 29.97 in /  1014.8 hPa Calm     96 % 0.00 in /  0 mm
08:39 68.1 °F /  20.1 °C 66.9 °F /  19.4 °C 29.97 in /  1014.8 hPa Calm     96 % 0.00 in /  0 mm
08:44 68.3 °F /  20.2 °C 67.1 °F /  19.5 °C 29.97 in /  1014.8 hPa Calm     96 % 0.00 in /  0 mm
08:50 68.6 °F /  20.3 °C 67.4 °F /  19.7 °C 29.97 in /  1014.8 hPa Calm   1.2 mph /  1.9 km/h 96 % 0.00 in /  0 mm
08:55 69.0 °F /  20.6 °C 67.8 °F /  19.9 °C 29.97 in /  1014.8 hPa North 1.2 mph /  1.9 km/h 3.5 mph /  5.6 km/h 96 % 0.00 in /  0 mm
08:57 69.2 °F /  20.7 °C 67.7 °F /  19.8 °C 29.97 in /  1014.8 hPa North 1.3 mph /  2.1 km/h 3.5 mph /  5.6 km/h 95 % 0.00 in /  0 mm
09:02 69.5 °F /  20.8 °C 68.0 °F /  20 °C 29.98 in /  1015.1 hPa NW 1.0 mph /  1.6 km/h 2.0 mph /  3.2 km/h 95 % 0.00 in /  0 mm
09:07 69.8 °F /  21 °C 68.3 °F /  20.2 °C 29.98 in /  1015.1 hPa NW 1.3 mph /  2.1 km/h 2.3 mph /  3.7 km/h 95 % 0.00 in /  0 mm
09:12 70.2 °F /  21.2 °C 68.7 °F /  20.4 °C 29.98 in /  1015.1 hPa North 1.7 mph /  2.7 km/h 2.3 mph /  3.7 km/h 95 % 0.00 in /  0 mm
09:17 70.4 °F /  21.3 °C 68.6 °F /  20.3 °C 29.98 in /  1015.1 hPa North 1.7 mph /  2.7 km/h 3.5 mph /  5.6 km/h 94 % 0.00 in /  0 mm
09:22 70.7 °F /  21.5 °C 68.9 °F /  20.5 °C 29.98 in /  1015.1 hPa NNW 1.0 mph /  1.6 km/h 1.2 mph /  1.9 km/h 94 % 0.00 in /  0 mm
09:27 71.1 °F /  21.7 °C 69.0 °F /  20.6 °C 29.99 in /  1015.5 hPa North 0.3 mph /  0.5 km/h 2.3 mph /  3.7 km/h 93 % 0.00 in /  0 mm
09:32 71.2 °F /  21.8 °C 69.1 °F /  20.6 °C 29.99 in /  1015.5 hPa North 0.7 mph /  1.1 km/h 2.3 mph /  3.7 km/h 93 % 0.00 in /  0 mm
09:38 71.4 °F /  21.9 °C 69.0 °F /  20.6 °C 29.99 in /  1015.5 hPa NW 1.7 mph /  2.7 km/h 2.3 mph /  3.7 km/h 92 % 0.00 in /  0 mm
09:43 71.6 °F /  22 °C 69.2 °F /  20.7 °C 29.99 in /  1015.5 hPa North 2.2 mph /  3.5 km/h 3.0 mph /  4.8 km/h 92 % 0.00 in /  0 mm
09:48 71.8 °F /  22.1 °C 69.3 °F /  20.7 °C 29.99 in /  1015.5 hPa North 1.4 mph /  2.3 km/h 4.0 mph /  6.4 km/h 92 % 0.00 in /  0 mm
09:53 72.0 °F /  22.2 °C 69.2 °F /  20.7 °C 29.99 in /  1015.5 hPa NNE 3.3 mph /  5.3 km/h 5.0 mph /  8 km/h 91 % 0.00 in /  0 mm
09:58 72.2 °F /  22.3 °C 69.4 °F /  20.8 °C 29.99 in /  1015.5 hPa NE 1.6 mph /  2.6 km/h 3.5 mph /  5.6 km/h 91 % 0.00 in /  0 mm
10:03 72.4 °F /  22.4 °C 69.6 °F /  20.9 °C 29.99 in /  1015.5 hPa North 2.7 mph /  4.3 km/h 3.5 mph /  5.6 km/h 91 % 0.00 in /  0 mm
10:08 72.6 °F /  22.6 °C 69.8 °F /  21 °C 29.99 in /  1015.5 hPa NE 4.5 mph /  7.2 km/h 6.9 mph /  11.1 km/h 91 % 0.00 in /  0 mm
10:13 72.9 °F /  22.7 °C 70.1 °F /  21.2 °C 29.99 in /  1015.5 hPa NNE 2.8 mph /  4.5 km/h 3.5 mph /  5.6 km/h 91 % 0.00 in /  0 mm
10:18 73.1 °F /  22.8 °C 70.3 °F /  21.3 °C 29.99 in /  1015.5 hPa NNE 4.1 mph /  6.6 km/h 5.8 mph /  9.3 km/h 91 % 0.00 in /  0 mm
10:23 73.5 °F /  23.1 °C 70.4 °F /  21.3 °C 29.99 in /  1015.5 hPa NNE 3.0 mph /  4.8 km/h 5.0 mph /  8 km/h 90 % 0.00 in /  0 mm
10:28 73.7 °F /  23.2 °C 70.6 °F /  21.4 °C 29.99 in /  1015.5 hPa ENE 2.3 mph /  3.7 km/h 4.6 mph /  7.4 km/h 90 % 0.00 in /  0 mm
10:33 73.8 °F /  23.2 °C 70.4 °F /  21.3 °C 29.99 in /  1015.5 hPa NNE 2.6 mph /  4.2 km/h 6.0 mph /  9.7 km/h 89 % 0.00 in /  0 mm
10:38 74.0 °F /  23.3 °C 70.6 °F /  21.4 °C 29.98 in /  1015.1 hPa NNW 1.1 mph /  1.8 km/h 3.5 mph /  5.6 km/h 89 % 0.00 in /  0 mm
10:43 74.2 °F /  23.4 °C 70.7 °F /  21.5 °C 29.98 in /  1015.1 hPa NNE 4.4 mph /  7.1 km/h 5.8 mph /  9.3 km/h 89 % 0.00 in /  0 mm
10:48 74.3 °F /  23.5 °C 70.8 °F /  21.6 °C 29.98 in /  1015.1 hPa NNE 2.6 mph /  4.2 km/h 4.6 mph /  7.4 km/h 89 % 0.00 in /  0 mm
10:53 74.4 °F /  23.6 °C 70.9 °F /  21.6 °C 29.98 in /  1015.1 hPa NNW 2.6 mph /  4.2 km/h 4.0 mph /  6.4 km/h 89 % 0.00 in /  0 mm
10:58 74.6 °F /  23.7 °C 70.8 °F /  21.6 °C 29.98 in /  1015.1 hPa NNE 2.3 mph /  3.7 km/h 4.6 mph /  7.4 km/h 88 % 0.00 in /  0 mm
11:03 74.7 °F /  23.7 °C 70.9 °F /  21.6 °C 29.98 in /  1015.1 hPa NNW 2.3 mph /  3.7 km/h 5.8 mph /  9.3 km/h 88 % 0.00 in /  0 mm
11:08 75.0 °F /  23.9 °C 71.5 °F /  21.9 °C 29.98 in /  1015.1 hPa NE 2.7 mph /  4.3 km/h 4.0 mph /  6.4 km/h 89 % 0.00 in /  0 mm
11:13 75.5 °F /  24.2 °C 72.0 °F /  22.2 °C 29.98 in /  1015.1 hPa ENE 1.6 mph /  2.6 km/h 3.5 mph /  5.6 km/h 89 % 0.00 in /  0 mm
11:19 76.2 °F /  24.6 °C 72.0 °F /  22.2 °C 29.98 in /  1015.1 hPa NE 1.6 mph /  2.6 km/h 4.6 mph /  7.4 km/h 87 % 0.00 in /  0 mm
11:24 77.1 °F /  25.1 °C 72.2 °F /  22.3 °C 29.98 in /  1015.1 hPa ENE 2.3 mph /  3.7 km/h 3.5 mph /  5.6 km/h 85 % 0.00 in /  0 mm
11:29 77.9 °F /  25.5 °C 72.3 °F /  22.4 °C 29.97 in /  1014.8 hPa NE 1.5 mph /  2.4 km/h 3.5 mph /  5.6 km/h 83 % 0.00 in /  0 mm
11:34 78.5 °F /  25.8 °C 72.2 °F /  22.3 °C 29.97 in /  1014.8 hPa ENE 2.4 mph /  3.9 km/h 7.0 mph /  11.3 km/h 81 % 0.00 in /  0 mm
11:39 79.1 °F /  26.2 °C 72.8 °F /  22.7 °C 29.97 in /  1014.8 hPa North 3.7 mph /  6 km/h 4.6 mph /  7.4 km/h 81 % 0.00 in /  0 mm
11:44 79.6 °F /  26.4 °C 72.5 °F /  22.5 °C 29.97 in /  1014.8 hPa NE 1.4 mph /  2.3 km/h 3.5 mph /  5.6 km/h 79 % 0.00 in /  0 mm
11:49 80.2 °F /  26.8 °C 72.7 °F /  22.6 °C 29.97 in /  1014.8 hPa NE 2.1 mph /  3.4 km/h 3.5 mph /  5.6 km/h 78 % 0.00 in /  0 mm
11:54 80.7 °F /  27.1 °C 72.4 °F /  22.4 °C 29.97 in /  1014.8 hPa ENE 2.1 mph /  3.4 km/h 3.5 mph /  5.6 km/h 76 % 0.00 in /  0 mm
11:59 81.2 °F /  27.3 °C 72.9 °F /  22.7 °C 29.97 in /  1014.8 hPa ENE 1.4 mph /  2.3 km/h 3.5 mph /  5.6 km/h 76 % 0.00 in /  0 mm
12:04 81.3 °F /  27.4 °C 72.6 °F /  22.6 °C 29.97 in /  1014.8 hPa ENE 2.1 mph /  3.4 km/h 3.5 mph /  5.6 km/h 75 % 0.00 in /  0 mm
12:09 81.4 °F /  27.4 °C 73.1 °F /  22.8 °C 29.97 in /  1014.8 hPa NE 1.0 mph /  1.6 km/h 2.3 mph /  3.7 km/h 76 % 0.00 in /  0 mm
12:14 81.6 °F /  27.6 °C 72.9 °F /  22.7 °C 29.97 in /  1014.8 hPa North 1.9 mph /  3.1 km/h 3.5 mph /  5.6 km/h 75 % 0.00 in /  0 mm
12:19 81.7 °F /  27.6 °C 72.6 °F /  22.6 °C 29.97 in /  1014.8 hPa North 3.5 mph /  5.6 km/h 7.0 mph /  11.3 km/h 74 % 0.00 in /  0 mm
12:24 82.1 °F /  27.8 °C 73.0 °F /  22.8 °C 29.97 in /  1014.8 hPa ENE 2.2 mph /  3.5 km/h 5.0 mph /  8 km/h 74 % 0.00 in /  0 mm
12:29 82.3 °F /  27.9 °C 72.4 °F /  22.4 °C 29.97 in /  1014.8 hPa NNE 2.0 mph /  3.2 km/h 3.5 mph /  5.6 km/h 72 % 0.00 in /  0 mm
12:34 82.4 °F /  28 °C 72.5 °F /  22.5 °C 29.96 in /  1014.4 hPa ENE 2.8 mph /  4.5 km/h 3.5 mph /  5.6 km/h 72 % 0.00 in /  0 mm
12:39 82.8 °F /  28.2 °C 72.4 °F /  22.4 °C 29.97 in /  1014.8 hPa ENE 0.4 mph /  0.6 km/h 1.2 mph /  1.9 km/h 71 % 0.00 in /  0 mm
12:44 83.1 °F /  28.4 °C 71.9 °F /  22.2 °C 29.97 in /  1014.8 hPa Calm   1.2 mph /  1.9 km/h 69 % 0.00 in /  0 mm
12:49 83.6 °F /  28.7 °C 71.5 °F /  21.9 °C 29.96 in /  1014.4 hPa Calm   1.2 mph /  1.9 km/h 67 % 0.00 in /  0 mm
12:54 84.1 °F /  28.9 °C 72.0 °F /  22.2 °C 29.97 in /  1014.8 hPa NE 0.1 mph /  0.2 km/h 1.0 mph /  1.6 km/h 67 % 0.00 in /  0 mm
12:59 84.6 °F /  29.2 °C 72.0 °F /  22.2 °C 29.97 in /  1014.8 hPa NE 2.2 mph /  3.5 km/h 3.5 mph /  5.6 km/h 66 % 0.00 in /  0 mm
13:04 84.7 °F /  29.3 °C 71.6 °F /  22 °C 29.97 in /  1014.8 hPa NE 0.5 mph /  0.8 km/h 3.5 mph /  5.6 km/h 65 % 0.00 in /  0 mm
13:09 84.6 °F /  29.2 °C 71.1 °F /  21.7 °C 29.96 in /  1014.4 hPa NE 1.2 mph /  1.9 km/h 2.0 mph /  3.2 km/h 64 % 0.00 in /  0 mm
13:14 84.7 °F /  29.3 °C 72.1 °F /  22.3 °C 29.96 in /  1014.4 hPa NNE 0.6 mph /  1 km/h 2.0 mph /  3.2 km/h 66 % 0.00 in /  0 mm
13:19 84.7 °F /  29.3 °C 70.7 °F /  21.5 °C 29.96 in /  1014.4 hPa NE 0.6 mph /  1 km/h 2.3 mph /  3.7 km/h 63 % 0.00 in /  0 mm
13:24 84.6 °F /  29.2 °C 71.5 °F /  21.9 °C 29.96 in /  1014.4 hPa NE 2.7 mph /  4.3 km/h 3.5 mph /  5.6 km/h 65 % 0.00 in /  0 mm
13:29 84.5 °F /  29.2 °C 71.4 °F /  21.9 °C 29.96 in /  1014.4 hPa North 1.5 mph /  2.4 km/h 2.3 mph /  3.7 km/h 65 % 0.00 in /  0 mm
13:35 84.6 °F /  29.2 °C 71.1 °F /  21.7 °C 29.96 in /  1014.4 hPa NE 0.7 mph /  1.1 km/h 2.3 mph /  3.7 km/h 64 % 0.00 in /  0 mm
13:40 84.6 °F /  29.2 °C 71.1 °F /  21.7 °C 29.95 in /  1014.1 hPa NE 1.1 mph /  1.8 km/h 3.5 mph /  5.6 km/h 64 % 0.00 in /  0 mm
13:45 84.6 °F /  29.2 °C 71.5 °F /  21.9 °C 29.95 in /  1014.1 hPa NE 0.4 mph /  0.6 km/h 2.0 mph /  3.2 km/h 65 % 0.00 in /  0 mm
13:50 84.7 °F /  29.3 °C 71.6 °F /  22 °C 29.95 in /  1014.1 hPa NE 1.2 mph /  1.9 km/h 3.5 mph /  5.6 km/h 65 % 0.00 in /  0 mm
13:55 84.9 °F /  29.4 °C 71.8 °F /  22.1 °C 29.94 in /  1013.8 hPa NNE 1.5 mph /  2.4 km/h 4.6 mph /  7.4 km/h 65 % 0.00 in /  0 mm
14:00 85.0 °F /  29.4 °C 71.9 °F /  22.2 °C 29.94 in /  1013.8 hPa North 2.0 mph /  3.2 km/h 4.0 mph /  6.4 km/h 65 % 0.00 in /  0 mm
14:05 85.4 °F /  29.7 °C 72.7 °F /  22.6 °C 29.94 in /  1013.8 hPa NNE 1.1 mph /  1.8 km/h 2.3 mph /  3.7 km/h 66 % 0.00 in /  0 mm
14:10 85.6 °F /  29.8 °C 72.0 °F /  22.2 °C 29.94 in /  1013.8 hPa ENE 0.5 mph /  0.8 km/h 2.3 mph /  3.7 km/h 64 % 0.00 in /  0 mm
14:15 85.6 °F /  29.8 °C 72.9 °F /  22.7 °C 29.94 in /  1013.8 hPa NE 2.0 mph /  3.2 km/h 3.5 mph /  5.6 km/h 66 % 0.00 in /  0 mm
14:20 85.4 °F /  29.7 °C 71.8 °F /  22.1 °C 29.94 in /  1013.8 hPa NE 1.5 mph /  2.4 km/h 3.5 mph /  5.6 km/h 64 % 0.00 in /  0 mm
14:26 85.2 °F /  29.6 °C 71.6 °F /  22 °C 29.94 in /  1013.8 hPa NE 1.0 mph /  1.6 km/h 3.0 mph /  4.8 km/h 64 % 0.00 in /  0 mm
14:31 84.7 °F /  29.3 °C 70.8 °F /  21.6 °C 29.93 in /  1013.4 hPa ENE 2.0 mph /  3.2 km/h 5.0 mph /  8 km/h 63 % 0.00 in /  0 mm
14:36 84.5 °F /  29.2 °C 71.9 °F /  22.2 °C 29.93 in /  1013.4 hPa Calm   4.0 mph /  6.4 km/h 66 % 0.00 in /  0 mm
14:41 84.5 °F /  29.2 °C 71.5 °F /  21.9 °C 29.93 in /  1013.4 hPa Calm   1.0 mph /  1.6 km/h 65 % 0.00 in /  0 mm
14:46 84.4 °F /  29.1 °C 69.9 °F /  21.1 °C 29.93 in /  1013.4 hPa NE 1.0 mph /  1.6 km/h 4.0 mph /  6.4 km/h 62 % 0.00 in /  0 mm
14:51 84.3 °F /  29.1 °C 70.8 °F /  21.6 °C 29.93 in /  1013.4 hPa Calm     64 % 0.00 in /  0 mm
14:56 84.2 °F /  29 °C 70.2 °F /  21.2 °C 29.93 in /  1013.4 hPa NE 2.1 mph /  3.4 km/h 3.5 mph /  5.6 km/h 63 % 0.00 in /  0 mm
15:01 83.9 °F /  28.8 °C 70.0 °F /  21.1 °C 29.93 in /  1013.4 hPa ENE 1.7 mph /  2.7 km/h 3.5 mph /  5.6 km/h 63 % 0.00 in /  0 mm
15:06 83.7 °F /  28.7 °C 71.1 °F /  21.7 °C 29.93 in /  1013.4 hPa ENE 1.0 mph /  1.6 km/h 3.5 mph /  5.6 km/h 66 % 0.00 in /  0 mm
15:11 83.4 °F /  28.6 °C 71.7 °F /  22.1 °C 29.93 in /  1013.4 hPa NE 0.6 mph /  1 km/h 2.3 mph /  3.7 km/h 68 % 0.00 in /  0 mm
15:16 83.2 °F /  28.4 °C 72.0 °F /  22.2 °C 29.92 in /  1013.1 hPa NE 0.4 mph /  0.6 km/h 1.2 mph /  1.9 km/h 69 % 0.00 in /  0 mm
15:21 83.0 °F /  28.3 °C 70.0 °F /  21.1 °C 29.93 in /  1013.4 hPa NE 0.9 mph /  1.4 km/h 1.2 mph /  1.9 km/h 65 % 0.00 in /  0 mm
15:26 82.8 °F /  28.2 °C 70.3 °F /  21.3 °C 29.93 in /  1013.4 hPa NE 0.5 mph /  0.8 km/h 1.2 mph /  1.9 km/h 66 % 0.00 in /  0 mm
15:31 82.8 °F /  28.2 °C 70.3 °F /  21.3 °C 29.93 in /  1013.4 hPa NE 0.1 mph /  0.2 km/h 1.2 mph /  1.9 km/h 66 % 0.00 in /  0 mm
15:37 82.6 °F /  28.1 °C 70.5 °F /  21.4 °C 29.92 in /  1013.1 hPa Calm   1.2 mph /  1.9 km/h 67 % 0.00 in /  0 mm
15:42 82.5 °F /  28.1 °C 70.0 °F /  21.1 °C 29.92 in /  1013.1 hPa NE 1.0 mph /  1.6 km/h 2.3 mph /  3.7 km/h 66 % 0.00 in /  0 mm
15:47 82.3 °F /  27.9 °C 70.2 °F /  21.2 °C 29.93 in /  1013.4 hPa Calm   3.5 mph /  5.6 km/h 67 % 0.00 in /  0 mm
15:52 82.2 °F /  27.9 °C 70.1 °F /  21.2 °C 29.92 in /  1013.1 hPa Calm   1.2 mph /  1.9 km/h 67 % 0.00 in /  0 mm
15:57 82.1 °F /  27.8 °C 69.6 °F /  20.9 °C 29.92 in /  1013.1 hPa NE 0.1 mph /  0.2 km/h 1.2 mph /  1.9 km/h 66 % 0.00 in /  0 mm
16:02 82.1 °F /  27.8 °C 70.1 °F /  21.2 °C 29.92 in /  1013.1 hPa NE 0.2 mph /  0.3 km/h 1.2 mph /  1.9 km/h 67 % 0.00 in /  0 mm
16:07 82.0 °F /  27.8 °C 69.1 °F /  20.6 °C 29.92 in /  1013.1 hPa NE 0.4 mph /  0.6 km/h 1.2 mph /  1.9 km/h 65 % 0.00 in /  0 mm
16:12 82.0 °F /  27.8 °C 69.1 °F /  20.6 °C 29.92 in /  1013.1 hPa NE 0.1 mph /  0.2 km/h 1.2 mph /  1.9 km/h 65 % 0.00 in /  0 mm
16:17 81.9 °F /  27.7 °C 68.1 °F /  20.1 °C 29.92 in /  1013.1 hPa NE 0.6 mph /  1 km/h 2.0 mph /  3.2 km/h 63 % 0.00 in /  0 mm
16:22 81.8 °F /  27.7 °C 68.4 °F /  20.2 °C 29.92 in /  1013.1 hPa NE 1.1 mph /  1.8 km/h 2.3 mph /  3.7 km/h 64 % 0.00 in /  0 mm
16:27 81.8 °F /  27.7 °C 68.9 °F /  20.5 °C 29.92 in /  1013.1 hPa NE 2.0 mph /  3.2 km/h 3.5 mph /  5.6 km/h 65 % 0.00 in /  0 mm
16:32 81.7 °F /  27.6 °C 68.8 °F /  20.4 °C 29.92 in /  1013.1 hPa NE 1.7 mph /  2.7 km/h 3.5 mph /  5.6 km/h 65 % 0.00 in /  0 mm
16:37 81.6 °F /  27.6 °C 69.6 °F /  20.9 °C 29.92 in /  1013.1 hPa NE 0.6 mph /  1 km/h 1.2 mph /  1.9 km/h 67 % 0.00 in /  0 mm
16:42 81.5 °F /  27.5 °C 69.0 °F /  20.6 °C 29.92 in /  1013.1 hPa NE 0.5 mph /  0.8 km/h 1.2 mph /  1.9 km/h 66 % 0.00 in /  0 mm
16:47 81.3 °F /  27.4 °C 68.9 °F /  20.5 °C 29.92 in /  1013.1 hPa NE 0.6 mph /  1 km/h 1.2 mph /  1.9 km/h 66 % 0.00 in /  0 mm
16:52 81.1 °F /  27.3 °C 69.1 °F /  20.6 °C 29.92 in /  1013.1 hPa Calm   1.2 mph /  1.9 km/h 67 % 0.00 in /  0 mm
16:57 81.1 °F /  27.3 °C 69.1 °F /  20.6 °C 29.92 in /  1013.1 hPa SE 0.3 mph /  0.5 km/h 1.2 mph /  1.9 km/h 67 % 0.00 in /  0 mm
17:02 81.2 °F /  27.3 °C 69.2 °F /  20.7 °C 29.92 in /  1013.1 hPa SE 0.5 mph /  0.8 km/h 1.2 mph /  1.9 km/h 67 % 0.00 in /  0 mm
17:07 81.1 °F /  27.3 °C 69.1 °F /  20.6 °C 29.92 in /  1013.1 hPa Calm   1.2 mph /  1.9 km/h 67 % 0.00 in /  0 mm
17:12 81.0 °F /  27.2 °C 69.4 °F /  20.8 °C 29.92 in /  1013.1 hPa Calm   1.2 mph /  1.9 km/h 68 % 0.00 in /  0 mm
17:17 81.0 °F /  27.2 °C 69.4 °F /  20.8 °C 29.92 in /  1013.1 hPa SE 0.7 mph /  1.1 km/h 2.3 mph /  3.7 km/h 68 % 0.00 in /  0 mm
17:23 81.0 °F /  27.2 °C 69.9 °F /  21.1 °C 29.92 in /  1013.1 hPa SE 1.7 mph /  2.7 km/h 4.0 mph /  6.4 km/h 69 % 0.00 in /  0 mm
17:28 80.9 °F /  27.2 °C 69.8 °F /  21 °C 29.92 in /  1013.1 hPa SE 0.3 mph /  0.5 km/h 1.2 mph /  1.9 km/h 69 % 0.00 in /  0 mm
17:33 80.8 °F /  27.1 °C 69.7 °F /  20.9 °C 29.92 in /  1013.1 hPa SE 0.1 mph /  0.2 km/h 1.2 mph /  1.9 km/h 69 % 0.00 in /  0 mm
17:38 80.8 °F /  27.1 °C 70.1 °F /  21.2 °C 29.92 in /  1013.1 hPa SE 0.5 mph /  0.8 km/h 2.3 mph /  3.7 km/h 70 % 0.00 in /  0 mm
17:43 80.6 °F /  27 °C 69.9 °F /  21.1 °C 29.92 in /  1013.1 hPa SE 1.9 mph /  3.1 km/h 3.5 mph /  5.6 km/h 70 % 0.00 in /  0 mm
17:48 80.6 °F /  27 °C 69.9 °F /  21.1 °C 29.92 in /  1013.1 hPa SE 0.5 mph /  0.8 km/h 3.5 mph /  5.6 km/h 70 % 0.00 in /  0 mm
17:53 80.6 °F /  27 °C 70.3 °F /  21.3 °C 29.92 in /  1013.1 hPa Calm   3.5 mph /  5.6 km/h 71 % 0.00 in /  0 mm
17:58 80.6 °F /  27 °C 70.3 °F /  21.3 °C 29.92 in /  1013.1 hPa Calm   1.2 mph /  1.9 km/h 71 % 0.00 in /  0 mm
18:03 80.5 °F /  26.9 °C 70.2 °F /  21.2 °C 29.92 in /  1013.1 hPa Calm   1.2 mph /  1.9 km/h 71 % 0.00 in /  0 mm
18:08 80.4 °F /  26.9 °C 70.1 °F /  21.2 °C 29.91 in /  1012.8 hPa SE 1.6 mph /  2.6 km/h 3.5 mph /  5.6 km/h 71 % 0.00 in /  0 mm
18:13 80.3 °F /  26.8 °C 70.0 °F /  21.1 °C 29.91 in /  1012.8 hPa SE 0.8 mph /  1.3 km/h 2.3 mph /  3.7 km/h 71 % 0.00 in /  0 mm
18:18 80.2 °F /  26.8 °C 69.9 °F /  21.1 °C 29.92 in /  1013.1 hPa SE 1.9 mph /  3.1 km/h 4.0 mph /  6.4 km/h 71 % 0.00 in /  0 mm
18:23 80.0 °F /  26.7 °C 70.2 °F /  21.2 °C 29.92 in /  1013.1 hPa SE 1.2 mph /  1.9 km/h 3.0 mph /  4.8 km/h 72 % 0.00 in /  0 mm
18:28 79.8 °F /  26.6 °C 69.6 °F /  20.9 °C 29.92 in /  1013.1 hPa SE 0.3 mph /  0.5 km/h 2.3 mph /  3.7 km/h 71 % 0.00 in /  0 mm
18:33 79.4 °F /  26.3 °C 69.2 °F /  20.7 °C 29.92 in /  1013.1 hPa SE 0.5 mph /  0.8 km/h 3.5 mph /  5.6 km/h 71 % 0.00 in /  0 mm
18:48 78.2 °F /  25.7 °C 68.4 °F /  20.2 °C 29.92 in /  1013.1 hPa SE 1.3 mph /  2.1 km/h 3.5 mph /  5.6 km/h 72 % 0.00 in /  0 mm
18:53 77.8 °F /  25.4 °C 68.4 °F /  20.2 °C 29.92 in /  1013.1 hPa SSE 3.6 mph /  5.8 km/h 9.0 mph /  14.5 km/h 73 % 0.00 in /  0 mm
18:58 77.3 °F /  25.2 °C 68.8 °F /  20.4 °C 29.92 in /  1013.1 hPa SE 2.2 mph /  3.5 km/h 6.9 mph /  11.1 km/h 75 % 0.00 in /  0 mm
19:03 76.8 °F /  24.9 °C 68.7 °F /  20.4 °C 29.91 in /  1012.8 hPa SE 2.7 mph /  4.3 km/h 9.2 mph /  14.8 km/h 76 % 0.00 in /  0 mm
19:08 76.4 °F /  24.7 °C 68.7 °F /  20.4 °C 29.92 in /  1013.1 hPa SE 1.5 mph /  2.4 km/h 3.5 mph /  5.6 km/h 77 % 0.00 in /  0 mm
19:13 76.0 °F /  24.4 °C 68.6 °F /  20.3 °C 29.92 in /  1013.1 hPa SSE 2.9 mph /  4.7 km/h 4.6 mph /  7.4 km/h 78 % 0.00 in /  0 mm
19:18 75.4 °F /  24.1 °C 68.4 °F /  20.2 °C 29.92 in /  1013.1 hPa SE 2.6 mph /  4.2 km/h 6.9 mph /  11.1 km/h 79 % 0.00 in /  0 mm
19:23 74.9 °F /  23.8 °C 67.9 °F /  19.9 °C 29.93 in /  1013.4 hPa SE 0.9 mph /  1.4 km/h 3.5 mph /  5.6 km/h 79 % 0.00 in /  0 mm
19:28 74.6 °F /  23.7 °C 68.0 °F /  20 °C 29.93 in /  1013.4 hPa SE 1.6 mph /  2.6 km/h 2.3 mph /  3.7 km/h 80 % 0.00 in /  0 mm
19:33 74.3 °F /  23.5 °C 67.4 °F /  19.7 °C 29.93 in /  1013.4 hPa SE 4.7 mph /  7.6 km/h 5.0 mph /  8 km/h 79 % 0.00 in /  0 mm
19:38 73.8 °F /  23.2 °C 66.9 °F /  19.4 °C 29.93 in /  1013.4 hPa Calm   3.5 mph /  5.6 km/h 79 % 0.00 in /  0 mm
19:43 73.4 °F /  23 °C 66.5 °F /  19.2 °C 29.93 in /  1013.4 hPa SE 2.6 mph /  4.2 km/h 4.6 mph /  7.4 km/h 79 % 0.00 in /  0 mm
19:48 73.1 °F /  22.8 °C 66.2 °F /  19 °C 29.93 in /  1013.4 hPa SE 2.5 mph /  4 km/h 4.6 mph /  7.4 km/h 79 % 0.00 in /  0 mm
19:58 72.7 °F /  22.6 °C 66.2 °F /  19 °C 29.94 in /  1013.8 hPa SE 0.1 mph /  0.2 km/h 1.2 mph /  1.9 km/h 80 % 0.00 in /  0 mm
20:04 72.5 °F /  22.5 °C 65.6 °F /  18.7 °C 29.94 in /  1013.8 hPa SE 0.5 mph /  0.8 km/h 3.5 mph /  5.6 km/h 79 % 0.00 in /  0 mm
20:09 72.3 °F /  22.4 °C 65.8 °F /  18.8 °C 29.94 in /  1013.8 hPa SE 0.7 mph /  1.1 km/h   80 % 0.00 in /  0 mm
20:14 72.1 °F /  22.3 °C 65.6 °F /  18.7 °C 29.94 in /  1013.8 hPa Calm   1.0 mph /  1.6 km/h 80 % 0.00 in /  0 mm
20:19 71.9 °F /  22.2 °C 65.8 °F /  18.8 °C 29.94 in /  1013.8 hPa Calm   4.6 mph /  7.4 km/h 81 % 0.00 in /  0 mm
20:24 71.8 °F /  22.1 °C 65.7 °F /  18.7 °C 29.94 in /  1013.8 hPa Calm   1.2 mph /  1.9 km/h 81 % 0.00 in /  0 mm
20:29 71.7 °F /  22.1 °C 65.6 °F /  18.7 °C 29.94 in /  1013.8 hPa Calm     81 % 0.00 in /  0 mm
20:34 71.7 °F /  22.1 °C 65.6 °F /  18.7 °C 29.94 in /  1013.8 hPa Calm     81 % 0.00 in /  0 mm
20:39 71.5 °F /  21.9 °C 65.4 °F /  18.6 °C 29.94 in /  1013.8 hPa Calm     81 % 0.00 in /  0 mm
20:44 71.4 °F /  21.9 °C 65.6 °F /  18.7 °C 29.94 in /  1013.8 hPa Calm     82 % 0.00 in /  0 mm
20:49 71.3 °F /  21.8 °C 65.5 °F /  18.6 °C 29.95 in /  1014.1 hPa Calm   1.2 mph /  1.9 km/h 82 % 0.00 in /  0 mm
20:54 71.1 °F /  21.7 °C 65.7 °F /  18.7 °C 29.95 in /  1014.1 hPa Calm   1.2 mph /  1.9 km/h 83 % 0.00 in /  0 mm
20:59 71.0 °F /  21.7 °C 65.6 °F /  18.7 °C 29.94 in /  1013.8 hPa Calm   1.2 mph /  1.9 km/h 83 % 0.00 in /  0 mm
21:04 70.8 °F /  21.6 °C 65.4 °F /  18.6 °C 29.95 in /  1014.1 hPa Calm     83 % 0.00 in /  0 mm
21:09 70.7 °F /  21.5 °C 65.3 °F /  18.5 °C 29.95 in /  1014.1 hPa Calm     83 % 0.00 in /  0 mm
21:14 70.5 °F /  21.4 °C 65.1 °F /  18.4 °C 29.95 in /  1014.1 hPa Calm     83 % 0.00 in /  0 mm
21:19 70.4 °F /  21.3 °C 65.0 °F /  18.3 °C 29.95 in /  1014.1 hPa Calm     83 % 0.00 in /  0 mm
21:24 70.2 °F /  21.2 °C 65.1 °F /  18.4 °C 29.95 in /  1014.1 hPa Calm     84 % 0.00 in /  0 mm
21:29 70.1 °F /  21.2 °C 65.0 °F /  18.3 °C 29.95 in /  1014.1 hPa Calm     84 % 0.00 in /  0 mm
21:34 69.9 °F /  21.1 °C 65.2 °F /  18.4 °C 29.95 in /  1014.1 hPa Calm     85 % 0.00 in /  0 mm
21:39 69.7 °F /  20.9 °C 65.0 °F /  18.3 °C 29.95 in /  1014.1 hPa Calm     85 % 0.00 in /  0 mm
21:44 69.6 °F /  20.9 °C 64.9 °F /  18.3 °C 29.95 in /  1014.1 hPa Calm     85 % 0.00 in /  0 mm
21:49 69.4 °F /  20.8 °C 64.7 °F /  18.2 °C 29.95 in /  1014.1 hPa Calm     85 % 0.00 in /  0 mm
21:54 69.3 °F /  20.7 °C 64.9 °F /  18.3 °C 29.95 in /  1014.1 hPa Calm     86 % 0.00 in /  0 mm
21:59 69.1 °F /  20.6 °C 64.7 °F /  18.2 °C 29.95 in /  1014.1 hPa Calm     86 % 0.00 in /  0 mm
22:04 68.9 °F /  20.5 °C 64.5 °F /  18.1 °C 29.94 in /  1013.8 hPa Calm     86 % 0.00 in /  0 mm
22:10 68.8 °F /  20.4 °C 64.8 °F /  18.2 °C 29.94 in /  1013.8 hPa Calm     87 % 0.00 in /  0 mm
22:15 68.7 °F /  20.4 °C 64.7 °F /  18.2 °C 29.94 in /  1013.8 hPa Calm     87 % 0.00 in /  0 mm
22:20 68.5 °F /  20.3 °C 64.5 °F /  18.1 °C 29.94 in /  1013.8 hPa Calm     87 % 0.00 in /  0 mm
22:25 68.4 °F /  20.2 °C 64.4 °F /  18 °C 29.94 in /  1013.8 hPa Calm     87 % 0.00 in /  0 mm
22:30 68.2 °F /  20.1 °C 64.2 °F /  17.9 °C 29.94 in /  1013.8 hPa Calm     87 % 0.00 in /  0 mm
22:35 68.1 °F /  20.1 °C 64.4 °F /  18 °C 29.95 in /  1014.1 hPa Calm     88 % 0.00 in /  0 mm
22:40 68.0 °F /  20 °C 64.3 °F /  17.9 °C 29.95 in /  1014.1 hPa Calm     88 % 0.00 in /  0 mm
22:45 67.9 °F /  19.9 °C 64.2 °F /  17.9 °C 29.94 in /  1013.8 hPa Calm     88 % 0.00 in /  0 mm
22:50 67.8 °F /  19.9 °C 64.1 °F /  17.8 °C 29.94 in /  1013.8 hPa Calm     88 % 0.00 in /  0 mm
22:55 67.6 °F /  19.8 °C 63.9 °F /  17.7 °C 29.94 in /  1013.8 hPa Calm     88 % 0.00 in /  0 mm
23:00 67.6 °F /  19.8 °C 64.2 °F /  17.9 °C 29.94 in /  1013.8 hPa Calm     89 % 0.00 in /  0 mm
23:05 67.4 °F /  19.7 °C 64.0 °F /  17.8 °C 29.93 in /  1013.4 hPa Calm     89 % 0.00 in /  0 mm
23:10 67.3 °F /  19.6 °C 63.9 °F /  17.7 °C 29.93 in /  1013.4 hPa Calm     89 % 0.00 in /  0 mm
23:17 67.1 °F /  19.5 °C 63.7 °F /  17.6 °C 29.93 in /  1013.4 hPa Calm     89 % 0.00 in /  0 mm
23:22 67.0 °F /  19.4 °C 63.6 °F /  17.6 °C 29.93 in /  1013.4 hPa Calm     89 % 0.00 in /  0 mm
23:24 67.0 °F /  19.4 °C 63.6 °F /  17.6 °C 29.93 in /  1013.4 hPa Calm     89 % 0.00 in /  0 mm
23:29 66.9 °F /  19.4 °C 63.6 °F /  17.6 °C 29.93 in /  1013.4 hPa Calm     89 % 0.00 in /  0 mm
23:32 66.8 °F /  19.3 °C 63.8 °F /  17.7 °C 29.93 in /  1013.4 hPa Calm     90 % 0.00 in /  0 mm
23:37 66.7 °F /  19.3 °C 63.7 °F /  17.6 °C 29.93 in /  1013.4 hPa Calm     90 % 0.00 in /  0 mm
23:47 66.6 °F /  19.2 °C 63.6 °F /  17.6 °C 29.92 in /  1013.1 hPa Calm     90 % 0.00 in /  0 mm
23:53 66.5 °F /  19.2 °C 63.5 °F /  17.5 °C 29.92 in /  1013.1 hPa Calm     90 % 0.00 in /  0 mm
23:58 66.4 °F /  19.1 °C 63.4 °F /  17.4 °C 29.92 in /  1013.1 hPa Calm     90 % 0.00 in /  0 mm
Crab Meadow Weather
Compliments of Weather Underground - 3 mb

Script developed by  Jim McMurry - jmcmurry@mwt.net Adapted for the template by  Wim van der Kuil - Leuven-Template.eu

Weather Terms: Severe Local Storms - These are short-fused, small scale hazardous weather or hydrologic events produced by thunderstorms, including large hail, damaging winds, tornadoes, and flash floods.